Time;durP1;ratioP1;P1;durP2;ratioP2;P2;SDS_P1;SDS_P2;PMS_P1;PMS_P2;Temp;Humidity;BMP_temperature;BMP_pressure;BME280_temperature;BME280_humidity;BME280_pressure;Samples;Min_cycle;Max_cycle;Signal;HPM_P1;HPM_P2
2021/08/13 00:00:59;;;;;;;17.40;8.93;;;16.60;99.90;;;;;;5101849;27;19916;-64
2021/08/13 00:03:25;;;;;;;;;;;16.60;99.90;;;;;;5102574;28;20039;-65
2021/08/13 00:05:51;;;;;;;11.98;7.93;;;;;;;;;;5101130;28;19927;-65
2021/08/13 00:08:17;;;;;;;;;;;;;;;;;;5101037;28;20036;-65
2021/08/13 00:10:43;;;;;;;14.88;7.78;;;;;;;;;;5103600;28;19932;-65
2021/08/13 00:13:09;;;;;;;13.20;7.95;;;;;;;;;;5102861;28;20036;-66
2021/08/13 00:15:35;;;;;;;21.90;9.15;;;;;;;;;;5100304;28;20056;-66
2021/08/13 00:18:01;;;;;;;;;;;;;;;;;;5095123;28;20554;-66
2021/08/13 00:20:27;;;;;;;12.32;7.75;;;;;;;;;;5089664;28;19927;-66
2021/08/13 00:22:53;;;;;;;;;;;;;;;;;;5089279;28;20036;-65
2021/08/13 00:25:19;;;;;;;16.92;8.13;;;;;;;;;;5087881;28;20299;-66
2021/08/13 00:27:45;;;;;;;21.00;9.35;;;;;;;;;;5089361;28;20040;-65
2021/08/13 00:30:11;;;;;;;;;;;;;;;;;;5089280;28;20040;-65
2021/08/13 00:32:38;;;;;;;15.23;8.50;;;;;;;;;;5089559;28;19927;-65
2021/08/13 00:35:04;;;;;;;11.75;8.23;;;;;;;;;;5087099;28;20032;-65
2021/08/13 00:37:31;;;;;;;11.45;8.10;;;;;;;;;;5086494;28;20535;-65
2021/08/13 00:39:57;;;;;;;17.63;9.07;;;;;;;;;;5088794;28;20051;-65
2021/08/13 00:42:23;;;;;;;13.13;8.35;;;;;;;;;;5088149;28;20089;-65
2021/08/13 00:44:49;;;;;;;;;;;;;;;;;;5088010;28;20039;-65
2021/08/13 00:47:15;;;;;;;13.45;8.02;;;;;;;;;;5087712;28;19927;-66
2021/08/13 00:49:41;;;;;;;16.80;7.75;;;;;;;;;;5088394;28;20065;-65
2021/08/13 00:52:07;;;;;;;16.67;8.88;;;;;;;;;;5088249;28;20119;-65
2021/08/13 00:54:33;;;;;;;;;;;;;;;;;;5088922;28;20543;-65
2021/08/13 00:56:59;;;;;;;17.83;8.48;;;;;;;;;;5087443;28;20018;-65
2021/08/13 00:59:25;;;;;;;18.35;9.38;;;;;;;;;;5087423;28;20123;-65
2021/08/13 01:01:51;;;;;;;18.52;9.57;;;;;;;;;;5099817;28;20039;-65
2021/08/13 01:04:17;;;;;;;;;;;;;;;;;;5108088;28;20570;-65
2021/08/13 01:06:43;;;;;;;20.85;9.32;;;;;;;;;;5105494;28;20017;-65
2021/08/13 01:09:10;;;;;;;19.30;9.05;;;;;;;;;;5107850;28;20100;-65
2021/08/13 01:11:38;;;;;;;13.82;9.05;;;;;;;;;;5104365;28;20042;-65
2021/08/13 01:14:16;;;;;;;13.50;9.18;;;;;;;;;;5106448;28;20312;-65
2021/08/13 01:16:44;;;;;;;15.85;8.85;;;;;;;;;;5093639;28;20054;-65
2021/08/13 01:19:16;;;;;;;16.55;9.63;;;;;;;;;;5087055;28;20040;-65
2021/08/13 01:21:45;;;;;;;14.10;8.90;;;;;;;;;;5087570;28;20062;-65
2021/08/13 01:24:15;;;;;;;14.23;8.85;;;;;;;;;;5087496;28;20427;-65
2021/08/13 01:26:44;;;;;;;20.15;9.82;;;;;;;;;;5086159;28;20094;-65
2021/08/13 01:29:16;;;;;;;16.25;9.02;;;;;;;;;;5086685;28;20518;-65
2021/08/13 01:31:50;;;;;;;15.65;8.77;;;;;;;;;;5084012;28;20039;-65
2021/08/13 01:34:18;;;;;;;16.77;9.07;;;;;;;;;;5086154;28;20032;-65
2021/08/13 01:36:46;;;;;;;14.45;9.50;;;;;;;;;;5086989;28;20472;-65
2021/08/13 01:39:12;;;;;;;13.88;9.52;;;;;;;;;;5086383;28;20093;-64
2021/08/13 01:41:39;;;;;;;18.75;9.13;;;;;;;;;;5087215;28;20032;-65
2021/08/13 01:44:09;;;;;;;19.00;9.10;;;;;;;;;;5086898;28;20044;-65
2021/08/13 01:46:35;;;;;;;23.38;10.60;;;;;;;;;;5084663;28;20326;-65
2021/08/13 01:49:02;;;;;;;15.40;8.77;;;;;;;;;;5086750;28;20407;-65
2021/08/13 01:51:28;;;;;;;15.20;9.23;;;;;;;;;;5086996;28;20726;-65
2021/08/13 01:53:55;;;;;;;13.77;9.00;;;;;;;;;;5086585;28;20048;-65
2021/08/13 01:56:22;;;;;;;20.33;8.98;;;;;;;;;;5085964;28;20466;-65
2021/08/13 01:58:48;;;;;;;14.77;9.20;;;;;;;;;;5086813;28;20036;-64
2021/08/13 02:01:15;;;;;;;17.02;9.80;;;;;;;;;;5094641;28;20036;-64
2021/08/13 02:03:42;;;;;;;12.60;8.15;;;;;;;;;;5106374;28;20109;-64
2021/08/13 02:06:08;;;;;;;13.48;8.43;;;;;;;;;;5105725;28;20491;-65
2021/08/13 02:08:37;;;;;;;19.20;8.68;;;;;;;;;;5106173;28;20044;-64
2021/08/13 02:11:04;;;;;;;16.75;9.57;;;;;;;;;;5107069;28;20035;-67
2021/08/13 02:13:31;;;;;;;15.50;8.93;;;;;;;;;;5106763;28;20038;-67
2021/08/13 02:16:08;;;;;;;17.40;9.15;;;;;;;;;;5098048;28;20504;-67
2021/08/13 02:18:35;;;;;;;17.00;9.50;;;;;;;;;;5086886;28;20124;-67
2021/08/13 02:21:04;;;;;;;13.10;8.82;;;;;;;;;;5087414;28;20043;-68
2021/08/13 02:23:30;;;;;;;15.38;9.65;;;;;;;;;;5086780;28;20055;-68
2021/08/13 02:25:56;;;;;;;;;;;;;;;;;;5086776;28;20044;-68
2021/08/13 02:28:22;;;;;;;16.42;8.77;;;;;;;;;;5087017;28;20016;-65
2021/08/13 02:30:48;;;;;;;;;;;;;;;;;;5085799;28;21149;-67
2021/08/13 02:33:14;;;;;;;13.23;7.88;;;;;;;;;;5086524;28;20014;-70
2021/08/13 02:35:44;;;;;;;20.40;9.30;;;;;;;;;;5084860;28;20036;-68
2021/08/13 02:38:12;;;;;;;17.30;10.38;;;;;;;;;;5086531;28;20036;-67
2021/08/13 02:40:40;;;;;;;16.23;9.73;;;;;;;;;;5089996;28;20051;-68
2021/08/13 02:43:25;;;;;;;16.48;8.85;;;;;;;;;;5088932;28;20058;-68
2021/08/13 02:45:53;;;;;;;15.05;8.85;;;;;;;;;;5086572;28;20040;-67
2021/08/13 02:48:19;;;;;;;16.00;9.48;;;;;;;;;;5086908;28;20078;-67
2021/08/13 02:50:46;;;;;;;15.35;9.57;;;;;;;;;;5086528;28;20040;-69
2021/08/13 02:53:21;;;;;;;17.02;9.10;;;;;;;;;;5086269;28;20067;-66
2021/08/13 02:56:01;;;;;;;19.60;9.73;;;;;;;;;;5084495;28;20051;-65
2021/08/13 02:58:30;;;;;;;15.00;8.65;;;;;;;;;;5085482;28;20042;-66
2021/08/13 03:00:57;;;;;;;14.82;9.13;;;;;;;;;;5085492;28;20170;-66
2021/08/13 03:03:23;;;;;;;15.40;8.55;;;;;;;;;;5085549;28;20036;-66
2021/08/13 03:05:52;;;;;;;21.70;9.10;;;;;;;;;;5084230;28;20126;-66
2021/08/13 03:08:19;;;;;;;17.20;9.45;;;;;;;;;;5084468;28;20522;-67
2021/08/13 03:10:46;;;;;;;16.25;9.25;;;;;;;;;;5085467;28;20039;-67
2021/08/13 03:13:12;;;;;;;16.90;9.45;;;;;;;;;;5085800;28;20047;-67
2021/08/13 03:15:38;;;;;;;;;;;;;;;;;;5081307;28;20062;-67
2021/08/13 03:18:04;;;;;;;16.65;8.75;;;;;;;;;;5081861;28;19927;-69
2021/08/13 03:20:30;;;;;;;16.67;8.65;;;;;;;;;;5084052;28;20142;-67
2021/08/13 03:22:56;;;;;;;14.13;9.48;;;;;;;;;;5082761;28;20037;-68
2021/08/13 03:25:22;;;;;;;19.67;9.05;;;;;;;;;;5084124;28;20047;-68
2021/08/13 03:27:49;;;;;;;15.55;9.93;;;;;;;;;;5085731;28;20036;-65
2021/08/13 03:30:15;;;;;;;21.52;9.77;;;;;;;;;;5085196;28;20075;-66
2021/08/13 03:32:41;;;;;;;;;;;;;;;;;;5084233;28;20063;-66
2021/08/13 03:35:07;;;;;;;17.52;9.60;;;;;;;;;;5083565;28;20419;-61
2021/08/13 03:37:35;;;;;;;14.65;8.90;;;;;;;;;;5085339;28;20039;-59
2021/08/13 03:40:02;;;;;;;13.80;8.50;;;;;;;;;;5085097;28;20047;-61
2021/08/13 03:42:28;;;;;;;18.92;9.63;;;;;;;;;;5085014;28;20115;-60
2021/08/13 03:44:54;;;;;;;;;;;;;;;;;;5085331;28;20044;-61
2021/08/13 03:47:20;;;;;;;24.15;12.55;;;;;;;;;;5082652;28;19920;-62
2021/08/13 03:49:46;;;;;;;;;;;;;;;;;;5085508;28;20491;-59
2021/08/13 03:52:12;;;;;;;16.83;10.75;;;;;;;;;;5085507;28;19926;-62
2021/08/13 03:54:38;;;;;;;15.38;9.55;;;;;;;;;;5087283;28;20637;-61
2021/08/13 03:57:04;;;;;;;;;;;;;;;;;;5089033;28;20077;-59
2021/08/13 03:59:30;;;;;;;17.10;9.00;;;;;;;;;;5088111;28;19927;-59
2021/08/13 04:01:56;;;;;;;;;;;;;;;;;;5088691;28;20046;-61
2021/08/13 04:04:22;;;;;;;15.85;8.75;;;;;;;;;;5088606;28;19953;-61
2021/08/13 04:06:48;;;;;;;;;;;;;;;;;;5089073;28;20040;-61
2021/08/13 04:09:14;;;;;;;19.30;8.77;;;;;;;;;;5087376;28;19927;-61
2021/08/13 04:11:40;;;;;;;;;;;;;;;;;;5088613;28;20040;-61
2021/08/13 04:14:06;;;;;;;18.15;8.95;;;;;;;;;;5088216;28;19920;-61
2021/08/13 04:16:32;;;;;;;15.60;8.60;;;;;;;;;;5086873;28;20115;-60
2021/08/13 04:18:58;;;;;;;;;;;;;;;;;;5088184;28;20150;-60
2021/08/13 04:21:24;;;;;;;17.63;9.65;;;;;;;;;;5088303;28;19919;-60
2021/08/13 04:23:50;;;;;;;;;;;;;;;;;;5084313;28;20036;-62
2021/08/13 04:26:16;;;;;;;24.80;9.85;;;;;;;;;;5086919;28;19927;-62
2021/08/13 04:28:42;;;;;;;17.95;9.63;;;;;;;;;;5088556;28;20043;-61
2021/08/13 04:31:08;;;;;;;;;;;;;;;;;;5088654;28;20032;-61
2021/08/13 04:33:35;;;;;;;16.60;9.40;;;;;;;;;;5087900;28;19923;-60
2021/08/13 04:36:01;;;;;;;25.42;9.57;;;;;;;;;;5087587;28;20048;-62
2021/08/13 04:38:27;;;;;;;19.25;8.82;;;;;;;;;;5088545;28;20043;-63
2021/08/13 04:40:53;;;;;;;;;;;;;;;;;;5088319;28;20032;-62
2021/08/13 04:43:19;;;;;;;13.57;8.18;;;;;;;;;;5088340;28;19931;-61
2021/08/13 04:45:45;;;;;;;12.90;8.35;;;;;;;;;;5085181;28;20040;-61
2021/08/13 04:48:11;;;;;;;;;;;;;;;;;;5088143;28;20036;-61
2021/08/13 04:50:38;;;;;;;17.48;8.50;;;;;;;;;;5088256;28;19920;-61
2021/08/13 04:53:04;;;;;;;12.70;8.60;;;;;;;;;;5088509;28;20500;-61
2021/08/13 04:55:29;;;;;;;;;;;;;;;;;;5087905;28;20495;-59
2021/08/13 04:57:56;;;;;;;17.25;10.27;;;;;;;;;;5087716;28;19923;-61
2021/08/13 05:00:21;;;;;;;;;;;;;;;;;;5088466;28;20450;-61
2021/08/13 05:02:48;;;;;;;14.13;8.25;;;;;;;;;;5087024;28;19916;-60
2021/08/13 05:05:14;;;;;;;13.85;8.20;;;;;;;;;;5086390;28;20071;-62
2021/08/13 05:07:40;;;;;;;;;;;;;;;;;;5088277;28;20044;-60
2021/08/13 05:10:10;;;;;;;17.30;7.85;;;;;;;;;;5079007;28;19920;-54
2021/08/13 05:12:36;;;;;;;17.70;8.80;;;;;;;;;;5078332;28;20036;-61
2021/08/13 05:15:02;;;;;;;15.77;8.43;;;;;;;;;;5086798;28;20097;-61
2021/08/13 05:17:29;;;;;;;12.07;8.00;;;;;;;;;;5085720;28;20036;-59
2021/08/13 05:19:55;;;;;;;;;;;;;;;;;;5087144;28;20395;-61
2021/08/13 05:22:21;;;;;;;18.02;8.30;;;;;;;;;;5086553;28;19963;-61
2021/08/13 05:24:47;;;;;;;16.38;9.05;;;;;;;;;;5085424;28;20040;-60
2021/08/13 05:27:13;;;;;;;;;;;;;;;;;;5086993;28;20086;-60
2021/08/13 05:29:39;;;;;;;17.30;8.15;;;;;;;;;;5084402;28;19950;-62
2021/08/13 05:32:05;;;;;;;;;;;;;;;;;;5086613;28;20063;-63
2021/08/13 05:34:30;;;;;;;12.65;7.35;;;;;;;;;;5086300;28;19984;-64
2021/08/13 05:36:56;;;;;;;;;;;;;;;;;;5087224;28;20043;-62
2021/08/13 05:39:22;;;;;;;11.45;6.50;;;;;;;;;;5086523;28;19969;-62
2021/08/13 05:41:48;;;;;;;;;;;;;;;;;;5087598;28;20049;-62
2021/08/13 05:44:14;;;;;;;14.15;6.95;;;;;;;;;;5085750;28;20415;-62
2021/08/13 05:46:40;;;;;;;;;;;;;;;;;;5085421;28;20044;-62
2021/08/13 05:49:06;;;;;;;14.73;7.03;;;;;;;;;;5086569;28;19916;-62
2021/08/13 05:51:32;;;;;;;12.95;7.25;;;;;;;;;;5087093;28;20036;-64
2021/08/13 05:53:58;;;;;;;10.25;7.10;;;;;;;;;;5085983;28;20543;-62
2021/08/13 05:56:24;;;;;;;;;;;;;;;;;;5086668;28;20122;-61
2021/08/13 05:58:50;;;;;;;14.10;6.72;;;;;;;;;;5086412;28;19942;-62
2021/08/13 06:01:16;;;;;;;;;;;;;;;;;;5083026;28;20127;-61
2021/08/13 06:03:42;;;;;;;13.98;6.80;;;;;;;;;;5085467;28;19919;-61
2021/08/13 06:06:08;;;;;;;9.68;6.22;;;;;;;;;;5085465;28;20109;-61
2021/08/13 06:08:34;;;;;;;;;;;;;;;;;;5086652;28;20044;-61
2021/08/13 06:11:00;;;;;;;10.57;6.75;;;;;;;;;;5070010;28;19923;-61
2021/08/13 06:13:26;;;;;;;17.23;7.55;;;;;;;;;;5084153;28;20581;-61
2021/08/13 06:15:54;;;;;;;13.38;7.78;;;;;;;;;;5083591;28;20111;-61
2021/08/13 06:18:20;;;;;;;14.07;7.13;;;;;;;;;;5086476;28;20040;-61
2021/08/13 06:20:46;;;;;;;;;;;;;;;;;;5080312;28;20062;-61
2021/08/13 06:23:12;;;;;;;14.60;6.63;;;;;;;;;;5085872;28;19967;-62
2021/08/13 06:25:38;;;;;;;14.48;7.40;;;;;;;;;;5084662;28;20119;-62
2021/08/13 06:28:04;;;;;;;;;;;;;;;;;;5086602;28;20572;-62
2021/08/13 06:30:30;;;;;;;15.15;6.70;;;;;;;;;;5086048;28;19927;-62
2021/08/13 06:32:59;;;;;;;13.20;6.50;;;;;;;;;;5085683;28;20036;-62
2021/08/13 06:35:26;;;;;;;14.02;6.85;;;;;;;;;;5086086;28;20087;-62
2021/08/13 06:37:54;;;;;;;10.00;5.90;;;;;;;;;;5086235;28;20435;-62
2021/08/13 06:40:21;;;;;;;12.32;6.22;;;;;;;;;;5086200;28;20032;-63
2021/08/13 06:42:47;;;;;;;9.98;5.68;;;;;;;;;;5084206;28;20082;-62
2021/08/13 06:45:18;;;;;;;12.38;5.47;;;;;;;;;;5082882;28;20123;-64
2021/08/13 06:47:44;;;;;;;10.35;6.38;;;;;;;;;;5083555;28;20143;-63
2021/08/13 06:50:11;;;;;;;9.90;5.90;;;;;;;;;;5081490;28;20054;-63
2021/08/13 06:52:38;;;;;;;8.75;5.40;;;;;;;;;;5085647;28;20491;-62
2021/08/13 06:55:05;;;;;;;11.32;6.22;;;;;;;;;;5085003;28;20044;-62
2021/08/13 06:57:31;;;;;;;9.88;6.20;;;;;;;;;;5078190;28;20044;-62
2021/08/13 06:59:57;;;;;;;13.23;6.35;;;;;;;;;;5065499;28;20067;-62
2021/08/13 07:02:23;;;;;;;15.80;6.72;;;;;;;;;;5068102;28;20059;-62
2021/08/13 07:04:49;;;;;;;12.13;5.88;;;;;;;;;;5084279;28;20468;-62
2021/08/13 07:07:15;;;;;;;10.07;5.80;;;;;;;;;;5085030;28;20408;-63
2021/08/13 07:09:46;;;;;;;11.90;6.72;;;;;;;;;;5078917;28;20036;-63
2021/08/13 07:12:13;;;;;;;17.20;6.47;;;;;;;;;;5080197;28;20036;-62
2021/08/13 07:14:39;;;;;;;12.43;6.82;;;;;;;;;;5084023;28;20044;-63
2021/08/13 07:17:05;;;;;;;18.13;6.90;;;;;;;;;;5083448;28;20052;-63
2021/08/13 07:19:31;;;;;;;13.60;7.28;;;;;;;;;;5078598;28;20066;-64
2021/08/13 07:21:57;;;;;;;14.90;7.78;;;;;;;;;;5078772;28;20071;-62
2021/08/13 07:24:24;;;;;;;12.02;7.22;;;;;;;;;;5078597;28;20036;-62
2021/08/13 07:26:50;;;;;;;12.77;8.10;;;;;;;;;;5084428;28;20071;-63
2021/08/13 07:29:16;;;;;;;12.95;7.97;;;;;;;;;;5088332;28;20044;-63
2021/08/13 07:31:42;;;;;;;12.02;7.80;;;;;;;;;;5088937;28;20044;-63
2021/08/13 07:34:08;;;;;;;16.38;8.43;;;;;;;;;;5084745;28;20471;-63
2021/08/13 07:36:34;;;;;;;14.10;8.77;;;;;;;;;;5088954;28;20048;-63
2021/08/13 07:39:01;;;;;;;25.63;8.88;;;;;;;;;;5089222;28;20644;-62
2021/08/13 07:41:27;;;;;;;16.23;8.57;;;;;;;;;;5088958;28;20135;-63
2021/08/13 07:43:53;;;;;;;13.52;8.85;;;;;;;;;;5087803;28;20097;-63
2021/08/13 07:46:19;;;;;;;18.10;9.25;;;;;;;;;;5087623;28;20048;-63
2021/08/13 07:48:45;;;;;;;16.30;8.32;;;;;;;;;;5089048;28;20039;-63
2021/08/13 07:51:11;;;;;;;19.45;9.48;;;;;;;;;;5087747;28;20521;-62
2021/08/13 07:53:37;;;;;;;14.07;9.25;;;;;;;;;;5088414;28;20040;-63
2021/08/13 07:56:03;;;;;;;16.30;9.50;;;;;;;;;;5087511;28;20109;-63
2021/08/13 07:58:30;;;;;;;13.57;8.85;;;;;;;;;;5087877;28;20044;-62
2021/08/13 08:00:56;;;;;;;15.52;9.00;;;;;;;;;;5088799;28;20133;-63
2021/08/13 08:03:22;;;;;;;21.70;9.10;;;;;;;;;;5089083;28;20050;-62
2021/08/13 08:05:48;;;;;;;14.20;8.75;;;;;;;;;;5088134;28;20093;-62
2021/08/13 08:08:14;;;;;;;15.75;8.90;;;;;;;;;;5069637;28;20052;-63
2021/08/13 08:10:46;;;;;;;10.98;8.02;;;;;;;;;;5068131;28;20520;-62
2021/08/13 08:13:12;;;;;;;12.82;8.25;;;;;;;;;;5081957;28;20133;-63
2021/08/13 08:15:38;;;;;;;16.58;8.30;;;;;;;;;;5087709;28;20477;-63
2021/08/13 08:18:04;;;;;;;15.80;9.02;;;;;;;;;;5089401;28;20139;-64
2021/08/13 08:20:30;;;;;;;13.25;8.32;;;;;;;;;;5088801;28;20524;-64
2021/08/13 08:22:56;;;;;;;16.95;8.80;;;;;;;;;;5087787;28;20039;-64
2021/08/13 08:25:22;;;;;;;12.65;8.00;;;;;;;;;;5086962;28;20428;-64
2021/08/13 08:27:48;;;;;;;12.77;8.15;;;;;;;;;;5088301;28;20058;-64
2021/08/13 08:30:14;;;;;;;12.15;7.85;;;;;;;;;;5088563;28;20039;-64
2021/08/13 08:32:41;;;;;;;11.40;7.75;;;;;;;;;;5088645;28;20043;-64
2021/08/13 08:35:07;;;;;;;12.13;8.07;;;;;;;;;;5087829;28;20039;-63
2021/08/13 08:37:33;;;;;;;11.07;7.82;;;;;;;;;;5088033;28;20724;-63
2021/08/13 08:39:59;;;;;;;10.18;7.75;;;;;;;;;;5088310;28;20070;-63
2021/08/13 08:42:25;;;;;;;13.38;7.40;;;;;;;;;;5087865;28;20032;-64
2021/08/13 08:44:51;;;;;;;10.45;7.85;;;;;;;;;;5087746;28;20042;-63
2021/08/13 08:47:19;;;;;;;10.15;7.05;;;;;;;;;;5087204;28;20056;-63
2021/08/13 08:49:46;;;;;;;12.77;8.35;;;;;;;;;;5087828;28;20297;-63
2021/08/13 08:52:12;;;;;;;13.10;7.75;;;;;;;;;;5088353;28;20059;-63
2021/08/13 08:54:39;;;;;;;13.63;8.55;;;;;;;;;;5087765;28;20610;-63
2021/08/13 08:57:05;;;;;;;15.60;9.20;;;;;;;;;;5086725;28;20799;-63
2021/08/13 08:59:32;;;;;;;17.00;8.02;;;;;;;;;;5086602;28;20055;-63
2021/08/13 09:01:58;;;;;;;11.05;7.03;;;;;;;;;;5086506;28;20627;-63
2021/08/13 09:04:24;;;;;;;16.48;7.68;;;;;;;;;;5086880;28;20040;-63
2021/08/13 09:06:51;;;;;;;9.45;7.53;;;;;;;;;;5086545;28;20048;-63
2021/08/13 09:09:17;;;;;;;13.18;7.30;;;;;;;;;;5087420;28;20036;-62
2021/08/13 09:11:44;;;;;;;13.90;8.35;;;;;;;;;;5087966;28;20044;-63
2021/08/13 09:14:11;;;;;;;14.00;7.93;;;;;;;;;;5086452;28;20090;-63
2021/08/13 09:16:37;;;;;;;23.45;8.27;;;;;;;;;;5083736;28;20036;-63
2021/08/13 09:19:05;;;;;;;11.77;7.57;;;;;;;;;;5087145;28;20080;-63
2021/08/13 09:21:31;;;;;;;19.50;8.32;;;;;;;;;;5086649;28;20516;-62
2021/08/13 09:24:01;;;;;;;11.05;7.65;;;;;;;;;;5087062;28;20044;-62
2021/08/13 09:26:28;;;;;;;10.35;7.10;;;;;;;;;;5086462;28;20540;-63
2021/08/13 09:28:59;;;;;;;17.42;11.30;;;;;;;;;;5087103;28;20081;-62
2021/08/13 09:31:28;;;;;;;11.85;7.97;;;;;;;;;;5086679;28;20048;-63
2021/08/13 09:33:58;;;;;;;10.10;7.05;;;;;;;;;;5086898;28;20097;-62
2021/08/13 09:36:25;;;;;;;12.15;6.93;;;;;;;;;;5086335;28;20040;-63
2021/08/13 09:39:02;;;;;;;9.13;6.85;;;;;;;;;;5088149;28;20101;-62
2021/08/13 09:41:28;;;;;;;9.90;6.70;;;;;;;;;;5087705;28;20048;-62
2021/08/13 09:43:55;;;;;;;11.50;6.88;;;;;;;;;;5081291;28;20029;-62
2021/08/13 09:46:21;;;;;;;10.02;6.50;;;;;;;;;;5078054;28;20051;-63
2021/08/13 09:48:48;;;;;;;9.82;6.65;;;;;;;;;;5086551;28;20044;-62
2021/08/13 09:51:31;;;;;;;12.77;6.60;;;;;;;;;;5085653;28;20616;-63
2021/08/13 09:53:58;;;;;;;15.43;6.95;;;;;;;;;;5082959;28;20048;-63
2021/08/13 09:56:25;;;;;;;10.48;6.50;;;;;;;;;;5077896;28;20032;-62
2021/08/13 09:58:51;;;;;;;10.68;7.35;;;;;;;;;;5084896;28;20072;-62
2021/08/13 10:01:35;;;;;;;13.52;7.55;;;;;;;;;;5086626;28;20056;-62
2021/08/13 10:04:01;;;;;;;11.23;6.90;;;;;;;;;;5082365;28;20036;-62
2021/08/13 10:06:31;;;;;;;9.45;6.10;;;;;;;;;;5082228;28;20063;-62
2021/08/13 10:08:57;;;;;;;9.35;6.18;;;;;;;;;;5077170;28;20040;-71
2021/08/13 10:11:23;;;;;;;10.57;6.25;;;;;;;;;;5073649;28;20050;-63
2021/08/13 10:13:50;;;;;;;11.68;6.43;;;;;;;;;;5074121;28;20055;-63
2021/08/13 10:16:23;;;;;;;13.57;7.32;;;;;;;;;;5072396;28;20048;-65
2021/08/13 10:18:51;;;;;;;10.85;6.35;;;;;;;;;;5072682;28;20060;-62
2021/08/13 10:21:17;;;;;;;19.98;6.22;;;;;;;;;;5065581;22;20041;-62
2021/08/13 10:23:44;;;;;;;9.30;6.43;;;;;;;;;;5064857;28;20556;-62
2021/08/13 10:26:13;;;;;;;9.45;6.63;;;;;;;;;;5046175;28;20052;-63
2021/08/13 10:28:39;;;;;;;11.10;6.95;;;;;;;;;;5049632;28;20045;-62
2021/08/13 10:31:05;;;;;;;8.85;6.47;;;;;;;;;;5062381;28;20526;-62
2021/08/13 10:33:31;;;;;;;12.73;6.35;;;;;;;;;;5084904;28;20040;-63
2021/08/13 10:36:02;;;;;;;9.23;5.95;;;;;;;;;;5085378;28;20050;-63
2021/08/13 10:38:30;;;;;;;15.02;6.32;;;;;;;;;;5085656;28;20044;-61
2021/08/13 10:40:56;;;;;;;9.95;6.32;;;;;;;;;;5085483;28;20036;-62
2021/08/13 10:43:29;;;;;;;13.73;6.55;;;;;;;;;;5076256;28;20036;-62
2021/08/13 10:45:55;;;;;;;10.73;6.35;;;;;;;;;;5077880;28;20040;-61
2021/08/13 10:48:28;;;;;;;9.95;6.50;;;;;;;;;;5084605;28;20044;-61
2021/08/13 10:50:58;;;;;;;13.55;6.65;;;;;;;;;;5082161;28;20552;-61
2021/08/13 10:53:31;;;;;;;13.27;6.63;;;;;;;;;;5072850;28;20603;-60
2021/08/13 10:55:58;;;;;;;8.13;5.40;;;;;;;;;;5079606;28;20139;-68
2021/08/13 10:58:36;;;;;;;13.55;6.35;;;;;;;;;;5080672;28;20412;-61
2021/08/13 11:01:06;;;;;;;10.20;5.82;;;;;;;;;;5075900;28;20040;-61
2021/08/13 11:03:32;;;;;;;11.75;6.05;;;;;;;;;;5073932;28;20052;-60
2021/08/13 11:06:00;;;;;;;12.15;6.65;;;;;;;;;;5063895;28;20070;-60
2021/08/13 11:08:41;;;;;;;12.77;7.03;;;;;;;;;;5084674;28;20132;-60
2021/08/13 11:11:10;;;;;;;13.63;6.60;;;;;;;;;;5083223;28;20060;-60
2021/08/13 11:13:41;;;;;;;10.25;6.18;;;;;;;;;;5080167;28;20675;-61
2021/08/13 11:16:26;;;;;;;13.80;6.03;;;;;;;;;;5054492;28;20097;-61
2021/08/13 11:18:56;;;;;;;17.35;8.65;;;;;;;;;;5084067;28;20055;-61
2021/08/13 11:21:39;;;;;;;11.32;7.20;;;;;;;;;;5084049;28;20100;-61
2021/08/13 11:24:08;;;;;;;11.40;6.53;;;;;;;;;;5085243;28;20111;-63
2021/08/13 11:26:53;;;;;;;11.30;6.30;;;;;;;;;;5063579;23;20105;-62
2021/08/13 11:29:29;;;;;;;15.00;10.30;;;;;;;;;;5082867;22;20045;-70
2021/08/13 11:32:07;;;;;;;12.77;7.60;;;;;;;;;;5078127;22;20132;-64
2021/08/13 11:34:43;;;;;;;14.05;6.38;;;;;;;;;;5095407;23;20044;-60
2021/08/13 11:37:10;;;;;;;11.23;7.95;;;;;;;;;;5081605;22;20047;-62
2021/08/13 11:39:40;;;;;;;10.27;7.25;;;;;;;;;;5087982;22;20056;-64
2021/08/13 11:42:09;;;;;;;13.77;8.35;;;;;;;;;;5089252;28;20037;-61
2021/08/13 11:44:36;;;;;;;11.38;6.68;;;;;;;;;;5096124;28;20695;-61
2021/08/13 11:47:03;;;;;;;12.52;6.22;;;;;;;;;;5089923;28;20044;-64
2021/08/13 11:49:30;;;;;;;11.52;6.95;;;;;;;;;;5095049;28;20044;-62
2021/08/13 11:51:56;;;;;;;12.38;6.78;;;;;;;;;;5088673;28;20043;-62
2021/08/13 11:54:29;;;;;;;17.73;6.25;;;;;;;;;;5088882;28;20527;-62
2021/08/13 11:57:15;;;;;;;12.85;6.80;;;;;;;;;;5088295;28;20044;-63
2021/08/13 11:59:41;;;;;;;8.50;6.13;;;;;;;;;;5089912;28;20048;-61
2021/08/13 12:02:08;;;;;;;10.18;6.32;;;;;;;;;;5083158;28;20123;-60
2021/08/13 12:04:34;;;;;;;8.40;5.93;;;;;;;;;;5090128;28;20521;-60
2021/08/13 12:07:13;;;;;;;13.80;6.70;;;;;;;;;;5086946;28;20086;-59
2021/08/13 12:09:40;;;;;;;12.10;6.90;;;;;;;;;;5085299;28;20469;-59
2021/08/13 12:12:15;;;;;;;10.55;6.43;;;;;;;;;;5084329;28;20130;-61
2021/08/13 12:14:48;;;;;;;9.00;6.30;;;;;;;;;;5096403;28;20108;-61
2021/08/13 12:17:14;;;;;;;7.53;5.80;;;;;;;;;;5086780;28;20078;-62
2021/08/13 12:19:41;;;;;;;9.82;6.38;;;;;;;;;;5087308;28;20075;-61
2021/08/13 12:22:08;;;;;;;10.77;6.22;;;;;;;;;;5100995;28;20031;-60
2021/08/13 12:24:41;;;;;;;9.65;5.65;;;;;;;;;;5089020;28;20115;-61
2021/08/13 12:27:08;;;;;;;10.82;6.32;;;;;;;;;;5086475;28;20062;-62
2021/08/13 12:29:39;;;;;;;10.98;6.45;;;;;;;;;;5095999;28;20048;-62
2021/08/13 12:32:08;;;;;;;13.43;6.80;;;;;;;;;;5096644;28;20048;-60
2021/08/13 12:34:35;;;;;;;10.90;6.47;;;;;;;;;;5093631;28;20038;-60
2021/08/13 12:37:06;;;;;;;9.07;6.15;;;;;;;;;;5087168;28;20082;-61
2021/08/13 12:39:33;;;;;;;12.65;6.65;;;;;;;;;;5097702;28;20454;-61
2021/08/13 12:42:00;;;;;;;10.80;5.82;;;;;;;;;;5086833;28;20507;-69
2021/08/13 12:44:26;;;;;;;12.95;6.82;;;;;;;;;;5089388;28;20035;-61
2021/08/13 12:46:52;;;;;;;13.88;6.72;;;;;;;;;;5092284;28;20044;-62
2021/08/13 12:49:19;;;;;;;12.30;7.22;;;;;;;;;;5095667;28;20075;-61
2021/08/13 12:51:45;;;;;;;10.98;6.40;;;;;;;;;;5095985;28;20036;-61
2021/08/13 12:54:34;;;;;;;12.13;6.70;;;;;;;;;;5086185;28;20054;-63
2021/08/13 12:57:01;;;;;;;11.93;7.13;;;;;;;;;;5092639;28;20440;-61
2021/08/13 12:59:34;;;;;;;15.75;7.03;;;;;;;;;;5095461;28;20536;-60
2021/08/13 13:02:00;;;;;;;15.13;7.45;;;;;;;;;;5086256;28;20530;-60
2021/08/13 13:04:40;;;;;;;13.07;7.25;;;;;;;;;;5087132;28;20040;-60
2021/08/13 13:07:07;;;;;;;12.77;7.75;;;;;;;;;;5087200;28;20044;-60
2021/08/13 13:09:33;;;;;;;16.92;7.93;;;;;;;;;;5088028;28;20043;-60
2021/08/13 13:12:19;;;;;;;9.98;6.97;;;;;;;;;;5088261;28;20459;-59
2021/08/13 13:14:45;;;;;;;11.43;6.57;;;;;;;;;;5086724;28;20090;-60
2021/08/13 13:17:12;;;;;;;12.60;7.22;;;;;;;;;;5087135;28;20117;-60
2021/08/13 13:19:38;;;;;;;11.05;7.13;;;;;;;;;;5088203;28;20052;-59
2021/08/13 13:22:15;;;;;;;12.93;5.82;;;;;;;;;;5087192;28;20036;-61
2021/08/13 13:24:41;;;;;;;12.82;7.30;;;;;;;;;;5086330;28;20032;-61
2021/08/13 13:27:07;;;;;;;11.82;7.30;;;;;;;;;;5086767;28;20055;-60
2021/08/13 13:29:34;;;;;;;11.93;6.88;;;;;;;;;;5087180;28;20032;-60
2021/08/13 13:32:00;;;;;;;12.93;7.68;;;;;;;;;;5086923;28;20036;-60
2021/08/13 13:34:26;;;;;;;11.85;6.95;;;;;;;;;;5087013;28;20439;-59
2021/08/13 13:36:52;;;;;;;11.90;7.40;;;;;;;;;;5086700;28;20039;-57
2021/08/13 13:39:18;;;;;;;11.52;6.93;;;;;;;;;;5084613;28;21426;-60
2021/08/13 13:41:44;;;;;;;13.90;8.60;;;;;;;;;;5070411;28;20047;-61
2021/08/13 13:44:10;;;;;;;15.07;8.48;;;;;;;;;;5086051;28;20339;-60
2021/08/13 13:46:36;;;;;;;11.35;8.20;;;;;;;;;;5066107;28;20056;-60
2021/08/13 13:49:02;;;;;;;14.48;7.97;;;;;;;;;;5067952;28;20145;-60
2021/08/13 13:51:28;;;;;;;15.02;8.82;;;;;;;;;;5066931;28;20715;-61
2021/08/13 13:53:54;;;;;;;16.05;8.80;;;;;;;;;;5066897;28;20036;-60
2021/08/13 13:56:20;;;;;;;21.42;11.73;;;;;;;;;;5066590;28;20036;-60
2021/08/13 13:58:46;;;;;;;13.23;8.60;;;;;;;;;;5083798;28;20642;-61
2021/08/13 14:01:12;;;;;;;13.35;9.40;;;;;;;;;;5078353;28;21094;-61
2021/08/13 14:03:39;;;;;;;18.67;9.43;;;;;;;;;;5068311;28;20033;-60
2021/08/13 14:06:05;;;;;;;17.80;10.13;;;;;;;;;;5066943;28;20084;-61
2021/08/13 14:08:31;;;;;;;14.57;9.23;;;;;;;;;;5065252;28;20048;-61
2021/08/13 14:10:57;;;;;;;21.13;9.98;;;;;;;;;;5067294;28;20040;-61
2021/08/13 14:13:23;;;;;;;20.75;10.32;;;;;;;;;;5066231;28;20811;-60
2021/08/13 14:15:49;;;;;;;18.60;9.43;;;;;;;;;;5065145;28;20436;-58
2021/08/13 14:18:15;;;;;;;15.32;10.00;;;;;;;;;;5066628;28;20037;-59
2021/08/13 14:20:41;;;;;;;14.05;9.90;;;;;;;;;;5066747;28;20028;-61
2021/08/13 14:23:07;;;;;;;21.15;10.23;;;;;;;;;;5047774;28;20051;-59
2021/08/13 14:25:33;;;;;;;15.27;9.98;;;;;;;;;;5065879;28;20040;-59
2021/08/13 14:27:59;;;;;;;17.08;10.18;;;;;;;;;;5066923;28;20612;-60
2021/08/13 14:30:25;;;;;;;17.00;9.98;;;;;;;;;;5066016;28;20850;-60
2021/08/13 14:32:52;;;;;;;23.20;10.50;;;;;;;;;;5067311;28;20044;-59
2021/08/13 14:35:18;;;;;;;17.45;11.50;;;;;;;;;;5065873;28;20664;-60
2021/08/13 14:37:44;;;;;;;19.42;12.27;;;;;;;;;;5065805;28;20585;-59
2021/08/13 14:40:11;;;;;;;18.73;11.35;;;;;;;;;;5066506;28;20187;-60
2021/08/13 14:42:37;;;;;;;15.95;10.15;;;;;;;;;;5066965;28;20175;-60